sensor_id;sensor_type;location;lat;lon;timestamp;P1;durP1;ratioP1;P2;durP2;ratioP2
53010;SDS011;42803;55.762;38.084;2023-01-20T00:00:12;39.33;;;15.02;;
53010;SDS011;42803;55.762;38.084;2023-01-20T00:02:41;35.55;;;15.02;;
53010;SDS011;42803;55.762;38.084;2023-01-20T00:05:10;37.03;;;15.23;;
53010;SDS011;42803;55.762;38.084;2023-01-20T00:07:40;37.20;;;14.60;;
53010;SDS011;42803;55.762;38.084;2023-01-20T00:10:09;32.75;;;15.18;;
53010;SDS011;42803;55.762;38.084;2023-01-20T00:12:40;34.10;;;14.82;;
53010;SDS011;42803;55.762;38.084;2023-01-20T00:15:09;34.65;;;14.57;;
53010;SDS011;42803;55.762;38.084;2023-01-20T00:17:39;35.42;;;14.63;;
53010;SDS011;42803;55.762;38.084;2023-01-20T00:20:08;36.35;;;14.68;;
53010;SDS011;42803;55.762;38.084;2023-01-20T00:22:38;37.05;;;16.85;;
53010;SDS011;42803;55.762;38.084;2023-01-20T00:25:08;38.08;;;15.30;;
53010;SDS011;42803;55.762;38.084;2023-01-20T00:27:40;33.08;;;13.90;;
53010;SDS011;42803;55.762;38.084;2023-01-20T00:30:10;32.33;;;13.73;;
53010;SDS011;42803;55.762;38.084;2023-01-20T00:32:39;39.53;;;15.68;;
53010;SDS011;42803;55.762;38.084;2023-01-20T00:35:11;37.17;;;15.13;;
53010;SDS011;42803;55.762;38.084;2023-01-20T00:37:41;43.75;;;14.43;;
53010;SDS011;42803;55.762;38.084;2023-01-20T00:40:10;35.08;;;14.73;;
53010;SDS011;42803;55.762;38.084;2023-01-20T00:42:41;32.67;;;14.60;;
53010;SDS011;42803;55.762;38.084;2023-01-20T00:45:10;35.05;;;14.52;;
53010;SDS011;42803;55.762;38.084;2023-01-20T00:47:39;36.45;;;14.75;;
53010;SDS011;42803;55.762;38.084;2023-01-20T00:50:09;35.78;;;14.55;;
53010;SDS011;42803;55.762;38.084;2023-01-20T00:52:38;34.25;;;14.68;;
53010;SDS011;42803;55.762;38.084;2023-01-20T00:55:07;42.05;;;15.02;;
53010;SDS011;42803;55.762;38.084;2023-01-20T00:57:38;33.72;;;13.77;;
53010;SDS011;42803;55.762;38.084;2023-01-20T01:00:09;32.72;;;13.85;;
53010;SDS011;42803;55.762;38.084;2023-01-20T01:02:39;32.33;;;12.85;;
53010;SDS011;42803;55.762;38.084;2023-01-20T01:05:08;33.15;;;12.80;;
53010;SDS011;42803;55.762;38.084;2023-01-20T01:07:37;34.45;;;14.15;;
53010;SDS011;42803;55.762;38.084;2023-01-20T01:10:07;38.47;;;14.18;;
53010;SDS011;42803;55.762;38.084;2023-01-20T01:12:37;37.40;;;15.07;;
53010;SDS011;42803;55.762;38.084;2023-01-20T01:15:06;32.17;;;13.35;;
53010;SDS011;42803;55.762;38.084;2023-01-20T01:17:38;37.08;;;13.00;;
53010;SDS011;42803;55.762;38.084;2023-01-20T01:20:07;37.58;;;12.60;;
53010;SDS011;42803;55.762;38.084;2023-01-20T01:22:38;34.88;;;12.82;;
53010;SDS011;42803;55.762;38.084;2023-01-20T01:25:07;34.67;;;14.13;;
53010;SDS011;42803;55.762;38.084;2023-01-20T01:27:38;31.17;;;13.32;;
53010;SDS011;42803;55.762;38.084;2023-01-20T01:30:09;33.50;;;12.93;;
53010;SDS011;42803;55.762;38.084;2023-01-20T01:32:39;35.58;;;14.45;;
53010;SDS011;42803;55.762;38.084;2023-01-20T01:35:08;34.25;;;13.32;;
53010;SDS011;42803;55.762;38.084;2023-01-20T01:37:38;37.83;;;14.88;;
53010;SDS011;42803;55.762;38.084;2023-01-20T01:40:07;32.97;;;13.52;;
53010;SDS011;42803;55.762;38.084;2023-01-20T01:42:38;34.35;;;13.82;;
53010;SDS011;42803;55.762;38.084;2023-01-20T01:45:16;36.85;;;14.60;;
53010;SDS011;42803;55.762;38.084;2023-01-20T01:47:51;37.80;;;14.43;;
53010;SDS011;42803;55.762;38.084;2023-01-20T01:50:24;35.72;;;14.98;;
53010;SDS011;42803;55.762;38.084;2023-01-20T01:52:55;38.00;;;14.18;;
53010;SDS011;42803;55.762;38.084;2023-01-20T01:55:25;27.70;;;13.20;;
53010;SDS011;42803;55.762;38.084;2023-01-20T01:57:57;36.83;;;13.90;;
53010;SDS011;42803;55.762;38.084;2023-01-20T02:00:30;29.35;;;13.07;;
53010;SDS011;42803;55.762;38.084;2023-01-20T02:02:59;38.35;;;14.90;;
53010;SDS011;42803;55.762;38.084;2023-01-20T02:05:28;30.00;;;14.07;;
53010;SDS011;42803;55.762;38.084;2023-01-20T02:07:58;33.38;;;14.40;;
53010;SDS011;42803;55.762;38.084;2023-01-20T02:10:28;38.15;;;14.23;;
53010;SDS011;42803;55.762;38.084;2023-01-20T02:12:57;32.03;;;13.88;;
53010;SDS011;42803;55.762;38.084;2023-01-20T02:15:30;34.28;;;14.35;;
53010;SDS011;42803;55.762;38.084;2023-01-20T02:18:08;35.60;;;13.75;;
53010;SDS011;42803;55.762;38.084;2023-01-20T02:23:49;31.73;;;13.80;;
53010;SDS011;42803;55.762;38.084;2023-01-20T02:26:39;27.65;;;10.98;;
53010;SDS011;42803;55.762;38.084;2023-01-20T02:29:34;30.40;;;12.27;;
53010;SDS011;42803;55.762;38.084;2023-01-20T02:32:38;32.67;;;12.73;;
53010;SDS011;42803;55.762;38.084;2023-01-20T02:35:17;38.75;;;13.95;;
53010;SDS011;42803;55.762;38.084;2023-01-20T02:37:54;29.05;;;13.32;;
53010;SDS011;42803;55.762;38.084;2023-01-20T02:40:35;29.45;;;13.38;;
53010;SDS011;42803;55.762;38.084;2023-01-20T02:43:10;36.08;;;13.95;;
53010;SDS011;42803;55.762;38.084;2023-01-20T02:45:48;35.92;;;13.27;;
53010;SDS011;42803;55.762;38.084;2023-01-20T02:48:26;30.15;;;12.35;;
53010;SDS011;42803;55.762;38.084;2023-01-20T02:51:02;29.27;;;12.63;;
53010;SDS011;42803;55.762;38.084;2023-01-20T02:53:38;32.20;;;12.38;;
53010;SDS011;42803;55.762;38.084;2023-01-20T02:56:12;29.13;;;12.65;;
53010;SDS011;42803;55.762;38.084;2023-01-20T02:58:45;38.25;;;13.93;;
53010;SDS011;42803;55.762;38.084;2023-01-20T03:01:19;34.60;;;14.48;;
53010;SDS011;42803;55.762;38.084;2023-01-20T03:03:54;35.38;;;14.43;;
53010;SDS011;42803;55.762;38.084;2023-01-20T03:06:29;37.97;;;12.75;;
53010;SDS011;42803;55.762;38.084;2023-01-20T03:09:03;40.03;;;12.98;;
53010;SDS011;42803;55.762;38.084;2023-01-20T03:11:34;29.02;;;11.45;;
53010;SDS011;42803;55.762;38.084;2023-01-20T03:14:09;31.55;;;11.93;;
53010;SDS011;42803;55.762;38.084;2023-01-20T03:16:40;33.45;;;12.93;;
53010;SDS011;42803;55.762;38.084;2023-01-20T03:19:15;30.77;;;12.48;;
53010;SDS011;42803;55.762;38.084;2023-01-20T03:21:46;36.08;;;13.68;;
53010;SDS011;42803;55.762;38.084;2023-01-20T03:24:16;32.63;;;13.10;;
53010;SDS011;42803;55.762;38.084;2023-01-20T03:26:45;32.95;;;12.65;;
53010;SDS011;42803;55.762;38.084;2023-01-20T03:29:14;29.80;;;12.07;;
53010;SDS011;42803;55.762;38.084;2023-01-20T03:31:45;34.05;;;12.13;;
53010;SDS011;42803;55.762;38.084;2023-01-20T03:34:20;38.47;;;13.50;;
53010;SDS011;42803;55.762;38.084;2023-01-20T03:36:51;32.97;;;12.30;;
53010;SDS011;42803;55.762;38.084;2023-01-20T03:39:22;30.83;;;14.48;;
53010;SDS011;42803;55.762;38.084;2023-01-20T03:41:56;31.65;;;12.82;;
53010;SDS011;42803;55.762;38.084;2023-01-20T03:44:37;32.58;;;12.05;;
53010;SDS011;42803;55.762;38.084;2023-01-20T03:47:19;30.27;;;11.80;;
53010;SDS011;42803;55.762;38.084;2023-01-20T03:50:00;29.75;;;11.43;;
53010;SDS011;42803;55.762;38.084;2023-01-20T03:52:37;24.70;;;11.40;;
53010;SDS011;42803;55.762;38.084;2023-01-20T03:55:15;28.38;;;10.65;;
53010;SDS011;42803;55.762;38.084;2023-01-20T03:57:50;27.08;;;12.48;;
53010;SDS011;42803;55.762;38.084;2023-01-20T04:00:24;32.38;;;12.90;;
53010;SDS011;42803;55.762;38.084;2023-01-20T04:02:56;26.65;;;11.13;;
53010;SDS011;42803;55.762;38.084;2023-01-20T04:05:29;31.20;;;13.20;;
53010;SDS011;42803;55.762;38.084;2023-01-20T04:07:58;32.30;;;12.70;;
53010;SDS011;42803;55.762;38.084;2023-01-20T04:10:31;38.55;;;13.45;;
53010;SDS011;42803;55.762;38.084;2023-01-20T04:13:03;24.00;;;10.50;;
53010;SDS011;42803;55.762;38.084;2023-01-20T04:15:32;34.58;;;12.82;;
53010;SDS011;42803;55.762;38.084;2023-01-20T04:18:11;27.38;;;11.70;;
53010;SDS011;42803;55.762;38.084;2023-01-20T04:20:42;27.75;;;10.82;;
53010;SDS011;42803;55.762;38.084;2023-01-20T04:23:15;31.83;;;10.95;;
53010;SDS011;42803;55.762;38.084;2023-01-20T04:25:49;26.58;;;11.63;;
53010;SDS011;42803;55.762;38.084;2023-01-20T04:28:18;25.13;;;11.10;;
53010;SDS011;42803;55.762;38.084;2023-01-20T04:30:47;27.38;;;10.63;;
53010;SDS011;42803;55.762;38.084;2023-01-20T04:33:17;23.10;;;10.05;;
53010;SDS011;42803;55.762;38.084;2023-01-20T04:35:47;31.02;;;11.13;;
53010;SDS011;42803;55.762;38.084;2023-01-20T04:38:16;30.73;;;11.23;;
53010;SDS011;42803;55.762;38.084;2023-01-20T04:40:46;27.98;;;11.30;;
53010;SDS011;42803;55.762;38.084;2023-01-20T04:43:15;27.77;;;11.48;;
53010;SDS011;42803;55.762;38.084;2023-01-20T04:45:44;30.58;;;10.88;;
53010;SDS011;42803;55.762;38.084;2023-01-20T04:48:13;29.15;;;11.70;;
53010;SDS011;42803;55.762;38.084;2023-01-20T04:50:42;27.17;;;11.35;;
53010;SDS011;42803;55.762;38.084;2023-01-20T04:53:13;27.08;;;10.77;;
53010;SDS011;42803;55.762;38.084;2023-01-20T04:55:45;27.55;;;10.85;;
53010;SDS011;42803;55.762;38.084;2023-01-20T04:58:14;29.05;;;11.93;;
53010;SDS011;42803;55.762;38.084;2023-01-20T05:00:43;30.67;;;11.43;;
53010;SDS011;42803;55.762;38.084;2023-01-20T05:03:12;26.35;;;11.50;;
53010;SDS011;42803;55.762;38.084;2023-01-20T05:05:41;27.98;;;10.70;;
53010;SDS011;42803;55.762;38.084;2023-01-20T05:08:10;28.10;;;10.77;;
53010;SDS011;42803;55.762;38.084;2023-01-20T05:10:40;27.08;;;11.18;;
53010;SDS011;42803;55.762;38.084;2023-01-20T05:13:09;30.73;;;12.05;;
53010;SDS011;42803;55.762;38.084;2023-01-20T05:15:41;24.75;;;11.48;;
53010;SDS011;42803;55.762;38.084;2023-01-20T05:18:11;28.60;;;10.52;;
53010;SDS011;42803;55.762;38.084;2023-01-20T05:20:40;26.63;;;12.10;;
53010;SDS011;42803;55.762;38.084;2023-01-20T05:23:11;28.33;;;11.77;;
53010;SDS011;42803;55.762;38.084;2023-01-20T05:25:41;24.90;;;11.07;;
53010;SDS011;42803;55.762;38.084;2023-01-20T05:28:16;27.42;;;12.27;;
53010;SDS011;42803;55.762;38.084;2023-01-20T05:30:46;33.20;;;11.40;;
53010;SDS011;42803;55.762;38.084;2023-01-20T05:33:15;35.67;;;11.98;;
53010;SDS011;42803;55.762;38.084;2023-01-20T05:35:45;27.55;;;11.13;;
53010;SDS011;42803;55.762;38.084;2023-01-20T05:38:14;27.48;;;11.77;;
53010;SDS011;42803;55.762;38.084;2023-01-20T05:40:44;30.58;;;11.07;;
53010;SDS011;42803;55.762;38.084;2023-01-20T05:43:13;29.27;;;12.32;;
53010;SDS011;42803;55.762;38.084;2023-01-20T05:45:42;28.48;;;11.10;;
53010;SDS011;42803;55.762;38.084;2023-01-20T05:48:12;29.30;;;12.05;;
53010;SDS011;42803;55.762;38.084;2023-01-20T05:50:41;30.05;;;11.63;;
53010;SDS011;42803;55.762;38.084;2023-01-20T05:53:10;32.17;;;11.80;;
53010;SDS011;42803;55.762;38.084;2023-01-20T05:55:40;34.78;;;12.43;;
53010;SDS011;42803;55.762;38.084;2023-01-20T05:58:10;32.72;;;11.93;;
53010;SDS011;42803;55.762;38.084;2023-01-20T06:00:39;29.75;;;11.45;;
53010;SDS011;42803;55.762;38.084;2023-01-20T06:03:08;34.33;;;11.35;;
53010;SDS011;42803;55.762;38.084;2023-01-20T06:05:37;27.25;;;11.43;;
53010;SDS011;42803;55.762;38.084;2023-01-20T06:08:06;28.85;;;11.18;;
53010;SDS011;42803;55.762;38.084;2023-01-20T06:10:35;33.50;;;12.57;;
53010;SDS011;42803;55.762;38.084;2023-01-20T06:13:04;30.35;;;12.18;;
53010;SDS011;42803;55.762;38.084;2023-01-20T06:15:35;24.48;;;10.55;;
53010;SDS011;42803;55.762;38.084;2023-01-20T06:18:04;26.73;;;11.32;;
53010;SDS011;42803;55.762;38.084;2023-01-20T06:20:33;29.38;;;11.98;;
53010;SDS011;42803;55.762;38.084;2023-01-20T06:23:02;30.65;;;11.25;;
53010;SDS011;42803;55.762;38.084;2023-01-20T06:25:31;36.13;;;13.63;;
53010;SDS011;42803;55.762;38.084;2023-01-20T06:28:01;30.13;;;12.75;;
53010;SDS011;42803;55.762;38.084;2023-01-20T06:30:30;31.67;;;12.15;;
53010;SDS011;42803;55.762;38.084;2023-01-20T06:33:00;26.67;;;11.00;;
53010;SDS011;42803;55.762;38.084;2023-01-20T06:35:30;35.85;;;11.73;;
53010;SDS011;42803;55.762;38.084;2023-01-20T06:37:59;30.02;;;12.48;;
53010;SDS011;42803;55.762;38.084;2023-01-20T06:40:28;28.38;;;11.23;;
53010;SDS011;42803;55.762;38.084;2023-01-20T06:42:57;31.42;;;12.10;;
53010;SDS011;42803;55.762;38.084;2023-01-20T06:45:26;29.08;;;11.68;;
53010;SDS011;42803;55.762;38.084;2023-01-20T06:47:55;30.50;;;12.02;;
53010;SDS011;42803;55.762;38.084;2023-01-20T06:50:26;32.65;;;12.35;;
53010;SDS011;42803;55.762;38.084;2023-01-20T06:52:57;31.65;;;12.38;;
53010;SDS011;42803;55.762;38.084;2023-01-20T06:55:27;33.55;;;12.68;;
53010;SDS011;42803;55.762;38.084;2023-01-20T06:57:56;29.83;;;12.38;;
53010;SDS011;42803;55.762;38.084;2023-01-20T07:00:25;29.75;;;11.35;;
53010;SDS011;42803;55.762;38.084;2023-01-20T07:02:54;39.22;;;12.13;;
53010;SDS011;42803;55.762;38.084;2023-01-20T07:05:23;32.13;;;12.50;;
53010;SDS011;42803;55.762;38.084;2023-01-20T07:07:54;36.47;;;13.07;;
53010;SDS011;42803;55.762;38.084;2023-01-20T07:10:23;32.17;;;11.80;;
53010;SDS011;42803;55.762;38.084;2023-01-20T07:12:52;24.70;;;10.95;;
53010;SDS011;42803;55.762;38.084;2023-01-20T07:15:21;31.42;;;11.98;;
53010;SDS011;42803;55.762;38.084;2023-01-20T07:17:50;34.17;;;11.55;;
53010;SDS011;42803;55.762;38.084;2023-01-20T07:20:19;32.97;;;11.95;;
53010;SDS011;42803;55.762;38.084;2023-01-20T07:22:49;33.92;;;12.43;;
53010;SDS011;42803;55.762;38.084;2023-01-20T07:25:19;30.20;;;12.48;;
53010;SDS011;42803;55.762;38.084;2023-01-20T07:27:48;32.20;;;12.73;;
53010;SDS011;42803;55.762;38.084;2023-01-20T07:30:18;32.20;;;11.77;;
53010;SDS011;42803;55.762;38.084;2023-01-20T07:32:47;35.25;;;12.90;;
53010;SDS011;42803;55.762;38.084;2023-01-20T07:35:16;33.17;;;11.85;;
53010;SDS011;42803;55.762;38.084;2023-01-20T07:37:45;28.17;;;11.18;;
53010;SDS011;42803;55.762;38.084;2023-01-20T07:40:15;32.95;;;12.10;;
53010;SDS011;42803;55.762;38.084;2023-01-20T07:42:45;31.27;;;12.65;;
53010;SDS011;42803;55.762;38.084;2023-01-20T07:45:16;25.67;;;12.05;;
53010;SDS011;42803;55.762;38.084;2023-01-20T07:47:45;29.63;;;11.57;;
53010;SDS011;42803;55.762;38.084;2023-01-20T07:50:15;26.95;;;10.10;;
53010;SDS011;42803;55.762;38.084;2023-01-20T07:52:44;32.50;;;12.68;;
53010;SDS011;42803;55.762;38.084;2023-01-20T07:55:13;34.17;;;11.52;;
53010;SDS011;42803;55.762;38.084;2023-01-20T07:57:43;24.60;;;11.30;;
53010;SDS011;42803;55.762;38.084;2023-01-20T08:00:13;29.88;;;12.77;;
53010;SDS011;42803;55.762;38.084;2023-01-20T08:02:43;32.25;;;12.07;;
53010;SDS011;42803;55.762;38.084;2023-01-20T08:05:13;34.10;;;11.77;;
53010;SDS011;42803;55.762;38.084;2023-01-20T08:07:42;29.10;;;11.55;;
53010;SDS011;42803;55.762;38.084;2023-01-20T08:10:11;26.33;;;11.70;;
53010;SDS011;42803;55.762;38.084;2023-01-20T08:12:40;30.60;;;13.15;;
53010;SDS011;42803;55.762;38.084;2023-01-20T08:15:10;26.60;;;12.13;;
53010;SDS011;42803;55.762;38.084;2023-01-20T08:17:41;30.25;;;12.60;;
53010;SDS011;42803;55.762;38.084;2023-01-20T08:20:10;29.17;;;12.13;;
53010;SDS011;42803;55.762;38.084;2023-01-20T08:22:39;25.20;;;11.98;;
53010;SDS011;42803;55.762;38.084;2023-01-20T08:25:09;27.38;;;10.85;;
53010;SDS011;42803;55.762;38.084;2023-01-20T08:27:39;33.05;;;11.73;;
53010;SDS011;42803;55.762;38.084;2023-01-20T08:30:08;29.42;;;11.90;;
53010;SDS011;42803;55.762;38.084;2023-01-20T08:32:38;26.60;;;11.73;;
53010;SDS011;42803;55.762;38.084;2023-01-20T08:35:09;24.55;;;11.52;;
53010;SDS011;42803;55.762;38.084;2023-01-20T08:37:38;32.00;;;11.45;;
53010;SDS011;42803;55.762;38.084;2023-01-20T08:40:07;23.30;;;10.68;;
53010;SDS011;42803;55.762;38.084;2023-01-20T08:42:37;27.15;;;11.18;;
53010;SDS011;42803;55.762;38.084;2023-01-20T08:45:10;26.20;;;10.52;;
53010;SDS011;42803;55.762;38.084;2023-01-20T08:47:40;26.20;;;10.27;;
53010;SDS011;42803;55.762;38.084;2023-01-20T08:50:13;24.48;;;10.05;;
53010;SDS011;42803;55.762;38.084;2023-01-20T08:52:43;35.25;;;12.32;;
53010;SDS011;42803;55.762;38.084;2023-01-20T08:55:12;35.42;;;11.75;;
53010;SDS011;42803;55.762;38.084;2023-01-20T08:57:41;30.17;;;12.02;;
53010;SDS011;42803;55.762;38.084;2023-01-20T09:00:12;25.10;;;10.85;;
53010;SDS011;42803;55.762;38.084;2023-01-20T09:02:42;23.60;;;11.85;;
53010;SDS011;42803;55.762;38.084;2023-01-20T09:05:11;31.25;;;11.70;;
53010;SDS011;42803;55.762;38.084;2023-01-20T09:07:43;29.02;;;11.30;;
53010;SDS011;42803;55.762;38.084;2023-01-20T09:10:12;28.63;;;11.77;;
53010;SDS011;42803;55.762;38.084;2023-01-20T09:12:41;25.67;;;11.15;;
53010;SDS011;42803;55.762;38.084;2023-01-20T09:15:11;28.67;;;12.05;;
53010;SDS011;42803;55.762;38.084;2023-01-20T09:17:40;26.27;;;9.50;;
53010;SDS011;42803;55.762;38.084;2023-01-20T09:20:10;29.83;;;10.88;;
53010;SDS011;42803;55.762;38.084;2023-01-20T09:22:39;23.25;;;10.05;;
53010;SDS011;42803;55.762;38.084;2023-01-20T09:25:10;27.98;;;10.52;;
53010;SDS011;42803;55.762;38.084;2023-01-20T09:27:40;22.58;;;10.80;;
53010;SDS011;42803;55.762;38.084;2023-01-20T09:30:09;25.35;;;11.35;;
53010;SDS011;42803;55.762;38.084;2023-01-20T09:32:41;24.83;;;10.02;;
53010;SDS011;42803;55.762;38.084;2023-01-20T09:35:10;40.22;;;15.73;;
53010;SDS011;42803;55.762;38.084;2023-01-20T09:37:40;25.65;;;9.60;;
53010;SDS011;42803;55.762;38.084;2023-01-20T09:40:29;29.75;;;10.65;;
53010;SDS011;42803;55.762;38.084;2023-01-20T09:43:28;30.55;;;10.95;;
53010;SDS011;42803;55.762;38.084;2023-01-20T09:46:21;22.50;;;10.43;;
53010;SDS011;42803;55.762;38.084;2023-01-20T09:49:02;24.25;;;10.48;;
53010;SDS011;42803;55.762;38.084;2023-01-20T09:52:00;26.63;;;10.80;;
53010;SDS011;42803;55.762;38.084;2023-01-20T09:54:55;23.80;;;10.68;;
53010;SDS011;42803;55.762;38.084;2023-01-20T09:57:32;27.75;;;11.18;;
53010;SDS011;42803;55.762;38.084;2023-01-20T10:00:09;28.05;;;11.25;;
53010;SDS011;42803;55.762;38.084;2023-01-20T10:02:45;28.63;;;10.88;;
53010;SDS011;42803;55.762;38.084;2023-01-20T10:05:19;26.27;;;11.30;;
53010;SDS011;42803;55.762;38.084;2023-01-20T10:07:51;26.52;;;10.48;;
53010;SDS011;42803;55.762;38.084;2023-01-20T10:10:26;24.10;;;10.40;;
53010;SDS011;42803;55.762;38.084;2023-01-20T10:13:02;26.75;;;11.88;;
53010;SDS011;42803;55.762;38.084;2023-01-20T10:15:38;26.10;;;10.50;;
53010;SDS011;42803;55.762;38.084;2023-01-20T10:18:12;27.65;;;10.95;;
53010;SDS011;42803;55.762;38.084;2023-01-20T10:20:45;24.15;;;10.35;;
53010;SDS011;42803;55.762;38.084;2023-01-20T10:23:19;28.58;;;11.32;;
53010;SDS011;42803;55.762;38.084;2023-01-20T10:25:52;34.05;;;12.35;;
53010;SDS011;42803;55.762;38.084;2023-01-20T10:28:31;23.83;;;10.88;;
53010;SDS011;42803;55.762;38.084;2023-01-20T10:31:06;23.38;;;10.65;;
53010;SDS011;42803;55.762;38.084;2023-01-20T10:33:37;21.30;;;10.13;;
53010;SDS011;42803;55.762;38.084;2023-01-20T10:36:12;33.70;;;12.23;;
53010;SDS011;42803;55.762;38.084;2023-01-20T10:38:49;24.90;;;9.75;;
53010;SDS011;42803;55.762;38.084;2023-01-20T10:41:25;24.08;;;11.27;;
53010;SDS011;42803;55.762;38.084;2023-01-20T10:44:00;24.95;;;9.45;;
53010;SDS011;42803;55.762;38.084;2023-01-20T10:46:42;24.15;;;10.77;;
53010;SDS011;42803;55.762;38.084;2023-01-20T10:49:32;21.30;;;9.52;;
53010;SDS011;42803;55.762;38.084;2023-01-20T10:52:37;22.02;;;9.75;;
53010;SDS011;42803;55.762;38.084;2023-01-20T10:55:17;23.10;;;10.13;;
53010;SDS011;42803;55.762;38.084;2023-01-20T10:57:55;25.67;;;9.93;;
53010;SDS011;42803;55.762;38.084;2023-01-20T11:00:29;23.52;;;10.50;;
53010;SDS011;42803;55.762;38.084;2023-01-20T11:02:59;27.55;;;10.93;;
53010;SDS011;42803;55.762;38.084;2023-01-20T11:05:34;25.00;;;10.20;;
53010;SDS011;42803;55.762;38.084;2023-01-20T11:08:06;25.33;;;9.70;;
53010;SDS011;42803;55.762;38.084;2023-01-20T11:10:43;23.65;;;9.75;;
53010;SDS011;42803;55.762;38.084;2023-01-20T11:13:24;22.27;;;9.27;;
53010;SDS011;42803;55.762;38.084;2023-01-20T11:15:55;22.92;;;9.43;;
53010;SDS011;42803;55.762;38.084;2023-01-20T11:18:30;24.02;;;10.10;;
53010;SDS011;42803;55.762;38.084;2023-01-20T11:21:01;24.10;;;9.75;;
53010;SDS011;42803;55.762;38.084;2023-01-20T11:23:34;25.10;;;9.77;;
53010;SDS011;42803;55.762;38.084;2023-01-20T11:26:06;27.98;;;10.93;;
53010;SDS011;42803;55.762;38.084;2023-01-20T11:28:48;19.33;;;9.30;;
53010;SDS011;42803;55.762;38.084;2023-01-20T11:31:32;33.10;;;11.50;;
53010;SDS011;42803;55.762;38.084;2023-01-20T11:34:16;20.88;;;8.80;;
53010;SDS011;42803;55.762;38.084;2023-01-20T11:36:49;19.58;;;8.98;;
53010;SDS011;42803;55.762;38.084;2023-01-20T11:39:43;20.30;;;8.65;;
53010;SDS011;42803;55.762;38.084;2023-01-20T11:42:27;20.55;;;9.60;;
53010;SDS011;42803;55.762;38.084;2023-01-20T11:44:58;20.42;;;9.43;;
53010;SDS011;42803;55.762;38.084;2023-01-20T11:47:57;21.17;;;9.23;;
53010;SDS011;42803;55.762;38.084;2023-01-20T11:50:32;21.40;;;9.35;;
53010;SDS011;42803;55.762;38.084;2023-01-20T11:53:11;21.58;;;9.02;;
53010;SDS011;42803;55.762;38.084;2023-01-20T11:55:50;24.38;;;9.55;;
53010;SDS011;42803;55.762;38.084;2023-01-20T11:58:22;24.70;;;8.63;;
53010;SDS011;42803;55.762;38.084;2023-01-20T12:00:57;20.70;;;8.27;;
53010;SDS011;42803;55.762;38.084;2023-01-20T12:06:29;21.85;;;8.20;;
53010;SDS011;42803;55.762;38.084;2023-01-20T12:09:04;21.30;;;8.38;;
53010;SDS011;42803;55.762;38.084;2023-01-20T12:11:41;17.63;;;8.20;;
53010;SDS011;42803;55.762;38.084;2023-01-20T12:14:20;21.38;;;7.97;;
53010;SDS011;42803;55.762;38.084;2023-01-20T12:17:04;17.70;;;7.45;;
53010;SDS011;42803;55.762;38.084;2023-01-20T12:19:49;20.02;;;7.97;;
53010;SDS011;42803;55.762;38.084;2023-01-20T12:22:27;19.15;;;7.10;;
53010;SDS011;42803;55.762;38.084;2023-01-20T12:25:10;19.02;;;7.90;;
53010;SDS011;42803;55.762;38.084;2023-01-20T12:27:47;19.98;;;8.38;;
53010;SDS011;42803;55.762;38.084;2023-01-20T12:33:23;20.27;;;8.82;;
53010;SDS011;42803;55.762;38.084;2023-01-20T12:36:18;19.38;;;8.90;;
53010;SDS011;42803;55.762;38.084;2023-01-20T12:39:11;19.08;;;8.60;;
53010;SDS011;42803;55.762;38.084;2023-01-20T12:42:16;18.02;;;7.78;;
53010;SDS011;42803;55.762;38.084;2023-01-20T12:45:04;24.88;;;7.50;;
53010;SDS011;42803;55.762;38.084;2023-01-20T12:47:45;19.02;;;8.13;;
53010;SDS011;42803;55.762;38.084;2023-01-20T12:50:26;18.42;;;8.35;;
53010;SDS011;42803;55.762;38.084;2023-01-20T12:53:13;18.55;;;7.82;;
53010;SDS011;42803;55.762;38.084;2023-01-20T12:55:56;15.43;;;7.82;;
53010;SDS011;42803;55.762;38.084;2023-01-20T12:58:39;18.90;;;7.07;;
53010;SDS011;42803;55.762;38.084;2023-01-20T13:01:21;17.52;;;8.27;;
53010;SDS011;42803;55.762;38.084;2023-01-20T13:10:26;15.48;;;6.82;;
53010;SDS011;42803;55.762;38.084;2023-01-20T13:13:17;16.15;;;6.97;;
53010;SDS011;42803;55.762;38.084;2023-01-20T13:15:56;16.48;;;7.50;;
53010;SDS011;42803;55.762;38.084;2023-01-20T13:21:10;15.23;;;6.75;;
53010;SDS011;42803;55.762;38.084;2023-01-20T13:23:45;18.27;;;7.55;;
53010;SDS011;42803;55.762;38.084;2023-01-20T13:26:15;18.50;;;7.43;;
53010;SDS011;42803;55.762;38.084;2023-01-20T13:28:52;13.95;;;7.00;;
53010;SDS011;42803;55.762;38.084;2023-01-20T13:31:30;18.60;;;7.47;;
53010;SDS011;42803;55.762;38.084;2023-01-20T13:40:03;16.25;;;7.40;;
53010;SDS011;42803;55.762;38.084;2023-01-20T13:43:00;22.25;;;7.75;;
53010;SDS011;42803;55.762;38.084;2023-01-20T13:45:30;14.25;;;6.28;;
53010;SDS011;42803;55.762;38.084;2023-01-20T13:48:00;21.42;;;7.25;;
53010;SDS011;42803;55.762;38.084;2023-01-20T13:50:45;18.80;;;6.82;;
53010;SDS011;42803;55.762;38.084;2023-01-20T13:53:26;11.77;;;6.63;;
53010;SDS011;42803;55.762;38.084;2023-01-20T13:56:22;18.65;;;7.55;;
53010;SDS011;42803;55.762;38.084;2023-01-20T13:58:52;18.08;;;7.97;;
53010;SDS011;42803;55.762;38.084;2023-01-20T14:01:24;14.85;;;6.65;;
53010;SDS011;42803;55.762;38.084;2023-01-20T14:04:00;14.38;;;6.57;;
53010;SDS011;42803;55.762;38.084;2023-01-20T14:06:32;18.00;;;8.25;;
53010;SDS011;42803;55.762;38.084;2023-01-20T14:09:02;17.08;;;7.68;;
53010;SDS011;42803;55.762;38.084;2023-01-20T14:11:38;18.38;;;6.85;;
53010;SDS011;42803;55.762;38.084;2023-01-20T14:14:17;14.52;;;7.22;;
53010;SDS011;42803;55.762;38.084;2023-01-20T14:16:47;15.38;;;7.18;;
53010;SDS011;42803;55.762;38.084;2023-01-20T14:19:20;14.50;;;7.55;;
53010;SDS011;42803;55.762;38.084;2023-01-20T14:21:53;16.27;;;7.22;;
53010;SDS011;42803;55.762;38.084;2023-01-20T14:24:25;18.50;;;7.68;;
53010;SDS011;42803;55.762;38.084;2023-01-20T14:27:04;17.50;;;6.78;;
53010;SDS011;42803;55.762;38.084;2023-01-20T14:29:34;18.40;;;6.95;;
53010;SDS011;42803;55.762;38.084;2023-01-20T14:32:09;18.08;;;7.05;;
53010;SDS011;42803;55.762;38.084;2023-01-20T14:34:48;15.93;;;6.72;;
53010;SDS011;42803;55.762;38.084;2023-01-20T14:37:22;14.82;;;7.00;;
53010;SDS011;42803;55.762;38.084;2023-01-20T14:39:54;18.95;;;7.60;;
53010;SDS011;42803;55.762;38.084;2023-01-20T14:42:25;18.20;;;6.63;;
53010;SDS011;42803;55.762;38.084;2023-01-20T14:44:57;17.83;;;7.57;;
53010;SDS011;42803;55.762;38.084;2023-01-20T14:47:27;15.40;;;7.30;;
53010;SDS011;42803;55.762;38.084;2023-01-20T14:49:59;21.98;;;7.93;;
53010;SDS011;42803;55.762;38.084;2023-01-20T14:52:31;21.40;;;8.27;;
53010;SDS011;42803;55.762;38.084;2023-01-20T14:55:00;17.88;;;6.82;;
53010;SDS011;42803;55.762;38.084;2023-01-20T14:57:30;15.52;;;6.82;;
53010;SDS011;42803;55.762;38.084;2023-01-20T15:00:02;19.15;;;7.80;;
53010;SDS011;42803;55.762;38.084;2023-01-20T15:02:42;16.95;;;7.50;;
53010;SDS011;42803;55.762;38.084;2023-01-20T15:05:35;17.38;;;7.13;;
53010;SDS011;42803;55.762;38.084;2023-01-20T15:08:21;18.48;;;7.43;;
53010;SDS011;42803;55.762;38.084;2023-01-20T15:14:05;18.20;;;7.50;;